sensor_id;sensor_type;location;lat;lon;timestamp;P1;durP1;ratioP1;P2;durP2;ratioP2
3922;SDS011;1976;51.694;6.256;2023-04-28T00:00:25;10.20;;;6.33;;
3922;SDS011;1976;51.694;6.256;2023-04-28T00:02:51;7.47;;;6.20;;
3922;SDS011;1976;51.694;6.256;2023-04-28T00:05:18;8.60;;;6.30;;
3922;SDS011;1976;51.694;6.256;2023-04-28T00:07:44;9.60;;;6.20;;
3922;SDS011;1976;51.694;6.256;2023-04-28T00:10:10;10.00;;;6.00;;
3922;SDS011;1976;51.694;6.256;2023-04-28T00:12:36;17.80;;;6.73;;
3922;SDS011;1976;51.694;6.256;2023-04-28T00:15:03;9.80;;;6.90;;
3922;SDS011;1976;51.694;6.256;2023-04-28T00:17:29;11.10;;;6.00;;
3922;SDS011;1976;51.694;6.256;2023-04-28T00:19:55;8.80;;;5.43;;
3922;SDS011;1976;51.694;6.256;2023-04-28T00:22:21;11.60;;;7.07;;
3922;SDS011;1976;51.694;6.256;2023-04-28T00:24:47;7.93;;;5.47;;
3922;SDS011;1976;51.694;6.256;2023-04-28T00:27:13;12.30;;;6.40;;
3922;SDS011;1976;51.694;6.256;2023-04-28T00:29:39;10.70;;;6.43;;
3922;SDS011;1976;51.694;6.256;2023-04-28T00:32:05;12.40;;;6.20;;
3922;SDS011;1976;51.694;6.256;2023-04-28T00:34:32;10.17;;;6.07;;
3922;SDS011;1976;51.694;6.256;2023-04-28T00:36:58;9.47;;;5.87;;
3922;SDS011;1976;51.694;6.256;2023-04-28T00:39:23;10.83;;;6.67;;
3922;SDS011;1976;51.694;6.256;2023-04-28T00:41:51;9.80;;;6.43;;
3922;SDS011;1976;51.694;6.256;2023-04-28T00:44:17;7.37;;;5.60;;
3922;SDS011;1976;51.694;6.256;2023-04-28T00:46:43;10.60;;;5.93;;
3922;SDS011;1976;51.694;6.256;2023-04-28T00:49:09;10.30;;;6.40;;
3922;SDS011;1976;51.694;6.256;2023-04-28T00:51:35;10.67;;;6.10;;
3922;SDS011;1976;51.694;6.256;2023-04-28T00:54:02;11.93;;;6.20;;
3922;SDS011;1976;51.694;6.256;2023-04-28T00:56:28;9.00;;;6.50;;
3922;SDS011;1976;51.694;6.256;2023-04-28T00:58:57;9.10;;;6.20;;
3922;SDS011;1976;51.694;6.256;2023-04-28T01:01:23;8.30;;;6.50;;
3922;SDS011;1976;51.694;6.256;2023-04-28T01:03:50;7.63;;;5.70;;
3922;SDS011;1976;51.694;6.256;2023-04-28T01:06:17;20.93;;;7.30;;
3922;SDS011;1976;51.694;6.256;2023-04-28T01:08:46;10.00;;;6.60;;
3922;SDS011;1976;51.694;6.256;2023-04-28T01:11:12;14.90;;;6.80;;
3922;SDS011;1976;51.694;6.256;2023-04-28T01:13:39;10.23;;;6.37;;
3922;SDS011;1976;51.694;6.256;2023-04-28T01:16:08;11.83;;;6.77;;
3922;SDS011;1976;51.694;6.256;2023-04-28T01:18:35;8.50;;;6.30;;
3922;SDS011;1976;51.694;6.256;2023-04-28T01:21:01;10.60;;;6.30;;
3922;SDS011;1976;51.694;6.256;2023-04-28T01:23:28;12.10;;;6.73;;
3922;SDS011;1976;51.694;6.256;2023-04-28T01:25:54;10.07;;;6.97;;
3922;SDS011;1976;51.694;6.256;2023-04-28T01:28:22;10.00;;;6.73;;
3922;SDS011;1976;51.694;6.256;2023-04-28T01:30:47;8.70;;;6.10;;
3922;SDS011;1976;51.694;6.256;2023-04-28T01:33:13;9.60;;;6.97;;
3922;SDS011;1976;51.694;6.256;2023-04-28T01:35:39;11.10;;;6.37;;
3922;SDS011;1976;51.694;6.256;2023-04-28T01:38:05;14.03;;;7.40;;
3922;SDS011;1976;51.694;6.256;2023-04-28T01:40:31;10.40;;;6.60;;
3922;SDS011;1976;51.694;6.256;2023-04-28T01:42:57;14.57;;;6.13;;
3922;SDS011;1976;51.694;6.256;2023-04-28T01:45:23;8.50;;;6.10;;
3922;SDS011;1976;51.694;6.256;2023-04-28T01:47:49;9.73;;;5.97;;
3922;SDS011;1976;51.694;6.256;2023-04-28T01:50:15;11.77;;;6.47;;
3922;SDS011;1976;51.694;6.256;2023-04-28T01:52:41;9.23;;;6.97;;
3922;SDS011;1976;51.694;6.256;2023-04-28T01:58:29;10.10;;;6.17;;
3922;SDS011;1976;51.694;6.256;2023-04-28T02:00:55;16.23;;;6.73;;
3922;SDS011;1976;51.694;6.256;2023-04-28T02:03:21;10.17;;;6.63;;
3922;SDS011;1976;51.694;6.256;2023-04-28T02:05:47;9.40;;;7.10;;
3922;SDS011;1976;51.694;6.256;2023-04-28T02:08:14;9.37;;;6.53;;
3922;SDS011;1976;51.694;6.256;2023-04-28T02:10:40;9.93;;;6.60;;
3922;SDS011;1976;51.694;6.256;2023-04-28T02:13:06;9.60;;;7.70;;
3922;SDS011;1976;51.694;6.256;2023-04-28T02:15:32;11.53;;;7.10;;
3922;SDS011;1976;51.694;6.256;2023-04-28T02:17:59;11.73;;;6.30;;
3922;SDS011;1976;51.694;6.256;2023-04-28T02:20:25;11.80;;;6.87;;
3922;SDS011;1976;51.694;6.256;2023-04-28T02:22:51;12.77;;;7.00;;
3922;SDS011;1976;51.694;6.256;2023-04-28T02:25:17;11.27;;;7.53;;
3922;SDS011;1976;51.694;6.256;2023-04-28T02:27:43;17.93;;;8.00;;
3922;SDS011;1976;51.694;6.256;2023-04-28T02:30:10;11.50;;;6.90;;
3922;SDS011;1976;51.694;6.256;2023-04-28T02:32:36;12.40;;;7.60;;
3922;SDS011;1976;51.694;6.256;2023-04-28T02:35:02;9.80;;;7.53;;
3922;SDS011;1976;51.694;6.256;2023-04-28T02:37:29;9.73;;;6.70;;
3922;SDS011;1976;51.694;6.256;2023-04-28T02:39:55;13.40;;;7.93;;
3922;SDS011;1976;51.694;6.256;2023-04-28T02:42:21;13.00;;;8.07;;
3922;SDS011;1976;51.694;6.256;2023-04-28T02:44:47;10.77;;;6.80;;
3922;SDS011;1976;51.694;6.256;2023-04-28T02:47:13;9.87;;;6.90;;
3922;SDS011;1976;51.694;6.256;2023-04-28T02:49:39;13.20;;;8.00;;
3922;SDS011;1976;51.694;6.256;2023-04-28T02:52:05;13.03;;;7.60;;
3922;SDS011;1976;51.694;6.256;2023-04-28T02:54:31;13.07;;;7.30;;
3922;SDS011;1976;51.694;6.256;2023-04-28T02:56:58;12.73;;;8.50;;
3922;SDS011;1976;51.694;6.256;2023-04-28T02:59:25;10.83;;;7.10;;
3922;SDS011;1976;51.694;6.256;2023-04-28T03:01:51;11.67;;;7.50;;
3922;SDS011;1976;51.694;6.256;2023-04-28T03:04:17;15.70;;;7.40;;
3922;SDS011;1976;51.694;6.256;2023-04-28T03:06:43;13.30;;;8.30;;
3922;SDS011;1976;51.694;6.256;2023-04-28T03:09:09;14.53;;;8.00;;
3922;SDS011;1976;51.694;6.256;2023-04-28T03:11:36;11.70;;;7.50;;
3922;SDS011;1976;51.694;6.256;2023-04-28T03:14:02;11.47;;;8.20;;
3922;SDS011;1976;51.694;6.256;2023-04-28T03:16:29;13.00;;;7.33;;
3922;SDS011;1976;51.694;6.256;2023-04-28T03:18:55;15.13;;;8.53;;
3922;SDS011;1976;51.694;6.256;2023-04-28T03:21:21;11.60;;;6.70;;
3922;SDS011;1976;51.694;6.256;2023-04-28T03:23:47;9.63;;;7.50;;
3922;SDS011;1976;51.694;6.256;2023-04-28T03:26:13;9.93;;;7.50;;
3922;SDS011;1976;51.694;6.256;2023-04-28T03:28:39;13.70;;;7.33;;
3922;SDS011;1976;51.694;6.256;2023-04-28T03:31:05;12.83;;;7.93;;
3922;SDS011;1976;51.694;6.256;2023-04-28T03:33:31;11.53;;;7.73;;
3922;SDS011;1976;51.694;6.256;2023-04-28T03:35:57;15.30;;;8.70;;
3922;SDS011;1976;51.694;6.256;2023-04-28T03:38:23;16.10;;;8.13;;
3922;SDS011;1976;51.694;6.256;2023-04-28T03:40:49;17.60;;;9.20;;
3922;SDS011;1976;51.694;6.256;2023-04-28T03:43:15;16.70;;;8.97;;
3922;SDS011;1976;51.694;6.256;2023-04-28T03:45:41;16.33;;;10.10;;
3922;SDS011;1976;51.694;6.256;2023-04-28T03:48:07;19.80;;;7.63;;
3922;SDS011;1976;51.694;6.256;2023-04-28T03:50:33;12.47;;;8.67;;
3922;SDS011;1976;51.694;6.256;2023-04-28T03:52:59;18.63;;;9.30;;
3922;SDS011;1976;51.694;6.256;2023-04-28T03:55:26;13.73;;;8.33;;
3922;SDS011;1976;51.694;6.256;2023-04-28T03:57:51;13.43;;;8.10;;
3922;SDS011;1976;51.694;6.256;2023-04-28T04:00:17;12.87;;;9.70;;
3922;SDS011;1976;51.694;6.256;2023-04-28T04:02:43;18.10;;;9.20;;
3922;SDS011;1976;51.694;6.256;2023-04-28T04:05:09;19.70;;;9.80;;
3922;SDS011;1976;51.694;6.256;2023-04-28T04:07:36;15.40;;;9.83;;
3922;SDS011;1976;51.694;6.256;2023-04-28T04:10:02;23.43;;;9.17;;
3922;SDS011;1976;51.694;6.256;2023-04-28T04:12:28;14.47;;;9.33;;
3922;SDS011;1976;51.694;6.256;2023-04-28T04:14:54;22.90;;;9.37;;
3922;SDS011;1976;51.694;6.256;2023-04-28T04:17:20;21.13;;;9.67;;
3922;SDS011;1976;51.694;6.256;2023-04-28T04:19:46;14.97;;;9.30;;
3922;SDS011;1976;51.694;6.256;2023-04-28T04:22:12;13.33;;;10.50;;
3922;SDS011;1976;51.694;6.256;2023-04-28T04:24:38;16.97;;;10.50;;
3922;SDS011;1976;51.694;6.256;2023-04-28T04:27:04;16.40;;;10.33;;
3922;SDS011;1976;51.694;6.256;2023-04-28T04:29:30;19.17;;;11.00;;
3922;SDS011;1976;51.694;6.256;2023-04-28T04:31:56;20.37;;;10.87;;
3922;SDS011;1976;51.694;6.256;2023-04-28T04:34:22;13.70;;;8.97;;
3922;SDS011;1976;51.694;6.256;2023-04-28T04:36:48;21.70;;;9.83;;
3922;SDS011;1976;51.694;6.256;2023-04-28T04:39:14;14.47;;;10.37;;
3922;SDS011;1976;51.694;6.256;2023-04-28T04:41:40;15.93;;;10.77;;
3922;SDS011;1976;51.694;6.256;2023-04-28T04:44:06;14.83;;;9.90;;
3922;SDS011;1976;51.694;6.256;2023-04-28T04:46:32;16.70;;;9.83;;
3922;SDS011;1976;51.694;6.256;2023-04-28T04:48:58;19.83;;;11.53;;
3922;SDS011;1976;51.694;6.256;2023-04-28T04:51:25;18.43;;;11.20;;
3922;SDS011;1976;51.694;6.256;2023-04-28T04:53:52;14.40;;;9.60;;
3922;SDS011;1976;51.694;6.256;2023-04-28T04:56:18;20.50;;;11.93;;
3922;SDS011;1976;51.694;6.256;2023-04-28T04:58:44;18.20;;;9.77;;
3922;SDS011;1976;51.694;6.256;2023-04-28T05:01:10;17.90;;;10.80;;
3922;SDS011;1976;51.694;6.256;2023-04-28T05:03:36;19.90;;;11.20;;
3922;SDS011;1976;51.694;6.256;2023-04-28T05:06:01;14.27;;;10.50;;
3922;SDS011;1976;51.694;6.256;2023-04-28T05:08:28;16.40;;;10.90;;
3922;SDS011;1976;51.694;6.256;2023-04-28T05:10:54;16.50;;;10.80;;
3922;SDS011;1976;51.694;6.256;2023-04-28T05:13:20;17.37;;;11.83;;
3922;SDS011;1976;51.694;6.256;2023-04-28T05:15:46;20.30;;;11.27;;
3922;SDS011;1976;51.694;6.256;2023-04-28T05:18:12;16.47;;;11.40;;
3922;SDS011;1976;51.694;6.256;2023-04-28T05:20:38;16.70;;;11.70;;
3922;SDS011;1976;51.694;6.256;2023-04-28T05:23:04;22.20;;;12.40;;
3922;SDS011;1976;51.694;6.256;2023-04-28T05:25:30;25.37;;;13.60;;
3922;SDS011;1976;51.694;6.256;2023-04-28T05:27:56;26.73;;;12.27;;
3922;SDS011;1976;51.694;6.256;2023-04-28T05:30:22;22.43;;;12.93;;
3922;SDS011;1976;51.694;6.256;2023-04-28T05:32:48;19.70;;;11.43;;
3922;SDS011;1976;51.694;6.256;2023-04-28T05:35:14;21.53;;;12.10;;
3922;SDS011;1976;51.694;6.256;2023-04-28T05:37:40;22.80;;;10.37;;
3922;SDS011;1976;51.694;6.256;2023-04-28T05:40:08;18.37;;;9.80;;
3922;SDS011;1976;51.694;6.256;2023-04-28T05:42:34;23.20;;;11.30;;
3922;SDS011;1976;51.694;6.256;2023-04-28T05:45:00;29.33;;;13.07;;
3922;SDS011;1976;51.694;6.256;2023-04-28T05:47:26;20.23;;;11.60;;
3922;SDS011;1976;51.694;6.256;2023-04-28T05:49:53;26.70;;;12.40;;
3922;SDS011;1976;51.694;6.256;2023-04-28T05:52:19;22.77;;;11.63;;
3922;SDS011;1976;51.694;6.256;2023-04-28T05:54:45;18.17;;;11.90;;
3922;SDS011;1976;51.694;6.256;2023-04-28T05:57:11;16.60;;;11.10;;
3922;SDS011;1976;51.694;6.256;2023-04-28T05:59:37;15.10;;;11.03;;
3922;SDS011;1976;51.694;6.256;2023-04-28T06:02:03;26.50;;;11.70;;
3922;SDS011;1976;51.694;6.256;2023-04-28T06:04:29;14.97;;;10.30;;
3922;SDS011;1976;51.694;6.256;2023-04-28T06:06:56;15.77;;;8.53;;
3922;SDS011;1976;51.694;6.256;2023-04-28T06:09:22;20.83;;;11.40;;
3922;SDS011;1976;51.694;6.256;2023-04-28T06:11:48;17.17;;;11.23;;
3922;SDS011;1976;51.694;6.256;2023-04-28T06:14:14;25.67;;;16.23;;
3922;SDS011;1976;51.694;6.256;2023-04-28T06:16:40;22.27;;;12.37;;
3922;SDS011;1976;51.694;6.256;2023-04-28T06:19:06;26.60;;;12.90;;
3922;SDS011;1976;51.694;6.256;2023-04-28T06:21:32;22.20;;;11.63;;
3922;SDS011;1976;51.694;6.256;2023-04-28T06:23:58;24.50;;;13.80;;
3922;SDS011;1976;51.694;6.256;2023-04-28T06:26:25;24.07;;;13.53;;
3922;SDS011;1976;51.694;6.256;2023-04-28T06:28:51;17.47;;;10.30;;
3922;SDS011;1976;51.694;6.256;2023-04-28T06:31:18;18.47;;;12.30;;
3922;SDS011;1976;51.694;6.256;2023-04-28T06:33:44;14.00;;;10.60;;
3922;SDS011;1976;51.694;6.256;2023-04-28T06:36:10;16.73;;;8.60;;
3922;SDS011;1976;51.694;6.256;2023-04-28T06:38:41;20.33;;;11.60;;
3922;SDS011;1976;51.694;6.256;2023-04-28T06:41:08;15.87;;;11.10;;
3922;SDS011;1976;51.694;6.256;2023-04-28T06:43:34;16.27;;;8.80;;
3922;SDS011;1976;51.694;6.256;2023-04-28T06:45:59;15.47;;;9.00;;
3922;SDS011;1976;51.694;6.256;2023-04-28T06:48:26;13.47;;;7.50;;
3922;SDS011;1976;51.694;6.256;2023-04-28T06:50:52;15.57;;;9.13;;
3922;SDS011;1976;51.694;6.256;2023-04-28T06:53:18;15.03;;;10.10;;
3922;SDS011;1976;51.694;6.256;2023-04-28T06:55:44;14.87;;;9.57;;
3922;SDS011;1976;51.694;6.256;2023-04-28T06:58:10;17.07;;;9.90;;
3922;SDS011;1976;51.694;6.256;2023-04-28T07:00:36;15.00;;;10.50;;
3922;SDS011;1976;51.694;6.256;2023-04-28T07:03:03;19.20;;;9.80;;
3922;SDS011;1976;51.694;6.256;2023-04-28T07:05:29;10.37;;;7.10;;
3922;SDS011;1976;51.694;6.256;2023-04-28T07:07:55;19.67;;;10.07;;
3922;SDS011;1976;51.694;6.256;2023-04-28T07:10:21;17.90;;;10.63;;
3922;SDS011;1976;51.694;6.256;2023-04-28T07:12:48;15.70;;;9.20;;
3922;SDS011;1976;51.694;6.256;2023-04-28T07:15:16;13.30;;;8.17;;
3922;SDS011;1976;51.694;6.256;2023-04-28T07:17:42;17.00;;;8.50;;
3922;SDS011;1976;51.694;6.256;2023-04-28T07:20:08;13.07;;;8.60;;
3922;SDS011;1976;51.694;6.256;2023-04-28T07:22:34;15.00;;;9.30;;
3922;SDS011;1976;51.694;6.256;2023-04-28T07:25:00;11.00;;;7.60;;
3922;SDS011;1976;51.694;6.256;2023-04-28T07:27:26;12.07;;;7.27;;
3922;SDS011;1976;51.694;6.256;2023-04-28T07:29:52;21.33;;;8.80;;
3922;SDS011;1976;51.694;6.256;2023-04-28T07:32:18;11.93;;;8.17;;
3922;SDS011;1976;51.694;6.256;2023-04-28T07:34:44;18.30;;;7.63;;
3922;SDS011;1976;51.694;6.256;2023-04-28T07:37:10;12.77;;;6.90;;
3922;SDS011;1976;51.694;6.256;2023-04-28T07:39:36;18.00;;;8.47;;
3922;SDS011;1976;51.694;6.256;2023-04-28T07:42:04;7.83;;;5.27;;
3922;SDS011;1976;51.694;6.256;2023-04-28T07:44:30;18.77;;;8.73;;
3922;SDS011;1976;51.694;6.256;2023-04-28T07:46:57;4.77;;;3.63;;
3922;SDS011;1976;51.694;6.256;2023-04-28T07:49:23;10.93;;;5.10;;
3922;SDS011;1976;51.694;6.256;2023-04-28T07:51:49;12.23;;;6.27;;
3922;SDS011;1976;51.694;6.256;2023-04-28T07:54:17;7.93;;;4.90;;
3922;SDS011;1976;51.694;6.256;2023-04-28T07:56:43;8.50;;;5.30;;
3922;SDS011;1976;51.694;6.256;2023-04-28T07:59:09;6.13;;;5.10;;
3922;SDS011;1976;51.694;6.256;2023-04-28T08:01:35;8.27;;;5.23;;
3922;SDS011;1976;51.694;6.256;2023-04-28T08:04:01;12.50;;;6.10;;
3922;SDS011;1976;51.694;6.256;2023-04-28T08:06:27;10.50;;;5.07;;
3922;SDS011;1976;51.694;6.256;2023-04-28T08:08:53;9.40;;;6.67;;
3922;SDS011;1976;51.694;6.256;2023-04-28T08:11:19;14.47;;;6.73;;
3922;SDS011;1976;51.694;6.256;2023-04-28T08:13:46;11.90;;;6.63;;
3922;SDS011;1976;51.694;6.256;2023-04-28T08:16:13;6.00;;;4.97;;
3922;SDS011;1976;51.694;6.256;2023-04-28T08:18:39;8.80;;;6.20;;
3922;SDS011;1976;51.694;6.256;2023-04-28T08:21:05;9.83;;;4.87;;
3922;SDS011;1976;51.694;6.256;2023-04-28T08:23:31;4.40;;;3.73;;
3922;SDS011;1976;51.694;6.256;2023-04-28T08:25:57;4.27;;;3.60;;
3922;SDS011;1976;51.694;6.256;2023-04-28T08:28:23;15.67;;;5.50;;
3922;SDS011;1976;51.694;6.256;2023-04-28T08:30:49;23.80;;;7.87;;
3922;SDS011;1976;51.694;6.256;2023-04-28T08:33:16;3.40;;;3.10;;
3922;SDS011;1976;51.694;6.256;2023-04-28T08:35:42;10.10;;;6.50;;
3922;SDS011;1976;51.694;6.256;2023-04-28T08:38:08;8.50;;;4.87;;
3922;SDS011;1976;51.694;6.256;2023-04-28T08:40:38;9.30;;;4.90;;
3922;SDS011;1976;51.694;6.256;2023-04-28T08:43:04;8.50;;;6.07;;
3922;SDS011;1976;51.694;6.256;2023-04-28T08:45:32;11.70;;;6.87;;
3922;SDS011;1976;51.694;6.256;2023-04-28T08:48:04;6.63;;;4.47;;
3922;SDS011;1976;51.694;6.256;2023-04-28T08:50:32;9.13;;;5.17;;
3922;SDS011;1976;51.694;6.256;2023-04-28T08:53:00;9.73;;;5.50;;
3922;SDS011;1976;51.694;6.256;2023-04-28T08:55:27;8.73;;;5.70;;
3922;SDS011;1976;51.694;6.256;2023-04-28T08:57:53;10.67;;;6.17;;
3922;SDS011;1976;51.694;6.256;2023-04-28T09:00:20;9.37;;;4.77;;
3922;SDS011;1976;51.694;6.256;2023-04-28T09:02:46;4.93;;;4.00;;
3922;SDS011;1976;51.694;6.256;2023-04-28T09:05:12;10.63;;;6.20;;
3922;SDS011;1976;51.694;6.256;2023-04-28T09:07:39;10.60;;;5.90;;
3922;SDS011;1976;51.694;6.256;2023-04-28T09:10:15;6.13;;;4.50;;
3922;SDS011;1976;51.694;6.256;2023-04-28T09:12:45;7.20;;;6.03;;
3922;SDS011;1976;51.694;6.256;2023-04-28T09:15:24;5.00;;;4.40;;
3922;SDS011;1976;51.694;6.256;2023-04-28T09:18:09;8.77;;;4.47;;
3922;SDS011;1976;51.694;6.256;2023-04-28T09:20:39;2.70;;;2.37;;
3922;SDS011;1976;51.694;6.256;2023-04-28T09:23:15;13.30;;;5.93;;
3922;SDS011;1976;51.694;6.256;2023-04-28T09:25:55;12.03;;;5.70;;
3922;SDS011;1976;51.694;6.256;2023-04-28T09:28:21;15.23;;;8.73;;
3922;SDS011;1976;51.694;6.256;2023-04-28T09:30:48;10.80;;;5.70;;
3922;SDS011;1976;51.694;6.256;2023-04-28T09:33:14;5.90;;;4.17;;
3922;SDS011;1976;51.694;6.256;2023-04-28T09:35:40;4.90;;;4.40;;
3922;SDS011;1976;51.694;6.256;2023-04-28T09:38:07;7.37;;;5.23;;
3922;SDS011;1976;51.694;6.256;2023-04-28T09:40:47;6.80;;;4.43;;
3922;SDS011;1976;51.694;6.256;2023-04-28T09:43:32;7.70;;;6.47;;
3922;SDS011;1976;51.694;6.256;2023-04-28T09:46:00;12.13;;;6.97;;
3922;SDS011;1976;51.694;6.256;2023-04-28T09:50:53;6.70;;;4.40;;
3922;SDS011;1976;51.694;6.256;2023-04-28T09:53:21;5.30;;;3.87;;
3922;SDS011;1976;51.694;6.256;2023-04-28T09:55:47;3.40;;;3.10;;
3922;SDS011;1976;51.694;6.256;2023-04-28T09:58:14;9.90;;;5.47;;
3922;SDS011;1976;51.694;6.256;2023-04-28T10:00:41;7.53;;;6.10;;
3922;SDS011;1976;51.694;6.256;2023-04-28T10:03:07;22.67;;;7.10;;
3922;SDS011;1976;51.694;6.256;2023-04-28T10:05:34;7.40;;;5.03;;
3922;SDS011;1976;51.694;6.256;2023-04-28T10:08:00;12.33;;;8.37;;
3922;SDS011;1976;51.694;6.256;2023-04-28T10:10:27;5.57;;;3.20;;
3922;SDS011;1976;51.694;6.256;2023-04-28T10:12:53;6.63;;;4.30;;
3922;SDS011;1976;51.694;6.256;2023-04-28T10:15:19;15.57;;;7.20;;
3922;SDS011;1976;51.694;6.256;2023-04-28T10:17:47;10.53;;;5.50;;
3922;SDS011;1976;51.694;6.256;2023-04-28T10:20:14;8.70;;;6.43;;
3922;SDS011;1976;51.694;6.256;2023-04-28T10:27:37;10.00;;;6.70;;
3922;SDS011;1976;51.694;6.256;2023-04-28T10:30:22;9.00;;;5.80;;
3922;SDS011;1976;51.694;6.256;2023-04-28T10:41:01;5.10;;;4.60;;
3922;SDS011;1976;51.694;6.256;2023-04-28T10:56:12;11.90;;;9.87;;
3922;SDS011;1976;51.694;6.256;2023-04-28T10:58:45;12.00;;;8.87;;
3922;SDS011;1976;51.694;6.256;2023-04-28T11:03:54;6.87;;;5.63;;
3922;SDS011;1976;51.694;6.256;2023-04-28T11:06:28;9.87;;;6.37;;
3922;SDS011;1976;51.694;6.256;2023-04-28T11:08:57;9.67;;;7.00;;
3922;SDS011;1976;51.694;6.256;2023-04-28T11:11:28;6.80;;;5.27;;
3922;SDS011;1976;51.694;6.256;2023-04-28T11:19:18;14.60;;;7.93;;
3922;SDS011;1976;51.694;6.256;2023-04-28T11:21:44;13.50;;;9.40;;
3922;SDS011;1976;51.694;6.256;2023-04-28T11:24:12;16.87;;;9.13;;
3922;SDS011;1976;51.694;6.256;2023-04-28T11:26:38;12.10;;;8.57;;
3922;SDS011;1976;51.694;6.256;2023-04-28T11:29:04;13.23;;;10.40;;
3922;SDS011;1976;51.694;6.256;2023-04-28T11:31:30;12.70;;;10.00;;
3922;SDS011;1976;51.694;6.256;2023-04-28T11:33:58;12.97;;;9.30;;
3922;SDS011;1976;51.694;6.256;2023-04-28T11:36:32;13.90;;;9.93;;
3922;SDS011;1976;51.694;6.256;2023-04-28T11:39:00;12.00;;;10.20;;
3922;SDS011;1976;51.694;6.256;2023-04-28T11:41:26;16.07;;;10.43;;
3922;SDS011;1976;51.694;6.256;2023-04-28T11:43:52;12.70;;;9.00;;
3922;SDS011;1976;51.694;6.256;2023-04-28T11:46:19;13.33;;;8.73;;
3922;SDS011;1976;51.694;6.256;2023-04-28T11:48:47;12.07;;;8.20;;
3922;SDS011;1976;51.694;6.256;2023-04-28T11:51:30;14.50;;;11.53;;
3922;SDS011;1976;51.694;6.256;2023-04-28T11:53:57;16.07;;;12.90;;
3922;SDS011;1976;51.694;6.256;2023-04-28T11:56:23;22.13;;;13.63;;
3922;SDS011;1976;51.694;6.256;2023-04-28T11:59:09;11.53;;;8.93;;
3922;SDS011;1976;51.694;6.256;2023-04-28T12:01:52;22.60;;;14.03;;
3922;SDS011;1976;51.694;6.256;2023-04-28T12:04:51;32.37;;;17.27;;
3922;SDS011;1976;51.694;6.256;2023-04-28T12:07:14;20.67;;;13.03;;
3922;SDS011;1976;51.694;6.256;2023-04-28T12:09:45;25.07;;;16.07;;
3922;SDS011;1976;51.694;6.256;2023-04-28T12:12:20;19.90;;;13.97;;
3922;SDS011;1976;51.694;6.256;2023-04-28T12:15:00;19.33;;;13.40;;
3922;SDS011;1976;51.694;6.256;2023-04-28T12:17:36;19.73;;;16.00;;
3922;SDS011;1976;51.694;6.256;2023-04-28T12:20:07;15.83;;;11.67;;
3922;SDS011;1976;51.694;6.256;2023-04-28T12:22:46;20.53;;;13.87;;
3922;SDS011;1976;51.694;6.256;2023-04-28T12:25:14;16.20;;;10.40;;
3922;SDS011;1976;51.694;6.256;2023-04-28T12:27:56;17.50;;;13.37;;
3922;SDS011;1976;51.694;6.256;2023-04-28T12:30:25;17.23;;;14.33;;
3922;SDS011;1976;51.694;6.256;2023-04-28T12:32:51;17.77;;;12.80;;
3922;SDS011;1976;51.694;6.256;2023-04-28T12:35:20;18.10;;;13.03;;
3922;SDS011;1976;51.694;6.256;2023-04-28T12:37:46;14.50;;;11.43;;
3922;SDS011;1976;51.694;6.256;2023-04-28T12:40:12;17.97;;;12.93;;
3922;SDS011;1976;51.694;6.256;2023-04-28T12:42:38;17.17;;;13.27;;
3922;SDS011;1976;51.694;6.256;2023-04-28T12:45:05;18.90;;;13.97;;
3922;SDS011;1976;51.694;6.256;2023-04-28T12:47:32;18.80;;;14.40;;
3922;SDS011;1976;51.694;6.256;2023-04-28T12:49:58;18.73;;;13.67;;
3922;SDS011;1976;51.694;6.256;2023-04-28T12:52:24;18.47;;;12.63;;
3922;SDS011;1976;51.694;6.256;2023-04-28T12:54:50;19.80;;;13.43;;
3922;SDS011;1976;51.694;6.256;2023-04-28T12:57:16;16.93;;;11.80;;
3922;SDS011;1976;51.694;6.256;2023-04-28T12:59:43;21.73;;;13.73;;
3922;SDS011;1976;51.694;6.256;2023-04-28T13:02:11;23.13;;;15.67;;
3922;SDS011;1976;51.694;6.256;2023-04-28T13:04:38;18.40;;;14.47;;
3922;SDS011;1976;51.694;6.256;2023-04-28T13:07:06;15.20;;;10.90;;
3922;SDS011;1976;51.694;6.256;2023-04-28T13:09:33;14.50;;;11.70;;
3922;SDS011;1976;51.694;6.256;2023-04-28T13:12:01;23.20;;;14.97;;
3922;SDS011;1976;51.694;6.256;2023-04-28T13:14:28;21.40;;;15.47;;
3922;SDS011;1976;51.694;6.256;2023-04-28T13:16:54;21.53;;;14.90;;
3922;SDS011;1976;51.694;6.256;2023-04-28T13:19:21;22.07;;;16.13;;
3922;SDS011;1976;51.694;6.256;2023-04-28T13:21:47;20.60;;;15.10;;
3922;SDS011;1976;51.694;6.256;2023-04-28T13:24:13;18.77;;;14.90;;
3922;SDS011;1976;51.694;6.256;2023-04-28T13:26:39;16.47;;;11.30;;
3922;SDS011;1976;51.694;6.256;2023-04-28T13:29:05;18.87;;;13.30;;
3922;SDS011;1976;51.694;6.256;2023-04-28T13:31:34;18.13;;;12.50;;
3922;SDS011;1976;51.694;6.256;2023-04-28T13:34:00;22.83;;;17.40;;
3922;SDS011;1976;51.694;6.256;2023-04-28T13:36:28;25.73;;;18.93;;
3922;SDS011;1976;51.694;6.256;2023-04-28T13:38:55;24.20;;;19.27;;
3922;SDS011;1976;51.694;6.256;2023-04-28T13:41:23;26.87;;;18.10;;
3922;SDS011;1976;51.694;6.256;2023-04-28T13:43:50;25.30;;;17.83;;
3922;SDS011;1976;51.694;6.256;2023-04-28T13:46:15;23.00;;;16.30;;
3922;SDS011;1976;51.694;6.256;2023-04-28T13:48:41;15.60;;;11.20;;
3922;SDS011;1976;51.694;6.256;2023-04-28T13:51:07;17.27;;;11.37;;
3922;SDS011;1976;51.694;6.256;2023-04-28T13:53:34;16.07;;;12.63;;
3922;SDS011;1976;51.694;6.256;2023-04-28T13:56:01;17.00;;;12.57;;
3922;SDS011;1976;51.694;6.256;2023-04-28T13:58:28;14.97;;;10.20;;
3922;SDS011;1976;51.694;6.256;2023-04-28T14:00:54;17.10;;;12.07;;
3922;SDS011;1976;51.694;6.256;2023-04-28T14:03:24;20.83;;;12.67;;
3922;SDS011;1976;51.694;6.256;2023-04-28T14:05:51;17.67;;;12.97;;
3922;SDS011;1976;51.694;6.256;2023-04-28T14:08:17;10.77;;;6.97;;
3922;SDS011;1976;51.694;6.256;2023-04-28T14:10:43;7.80;;;5.93;;
3922;SDS011;1976;51.694;6.256;2023-04-28T14:13:10;8.60;;;5.70;;
3922;SDS011;1976;51.694;6.256;2023-04-28T14:15:36;7.97;;;6.17;;
3922;SDS011;1976;51.694;6.256;2023-04-28T14:18:04;9.30;;;6.80;;
3922;SDS011;1976;51.694;6.256;2023-04-28T14:20:30;12.13;;;8.03;;
3922;SDS011;1976;51.694;6.256;2023-04-28T14:22:56;9.07;;;6.63;;
3922;SDS011;1976;51.694;6.256;2023-04-28T14:25:23;7.93;;;5.70;;
3922;SDS011;1976;51.694;6.256;2023-04-28T14:27:49;11.20;;;7.27;;
3922;SDS011;1976;51.694;6.256;2023-04-28T14:30:16;9.07;;;6.63;;
3922;SDS011;1976;51.694;6.256;2023-04-28T14:32:42;8.13;;;6.50;;
3922;SDS011;1976;51.694;6.256;2023-04-28T14:35:09;9.30;;;6.57;;
3922;SDS011;1976;51.694;6.256;2023-04-28T14:37:35;7.93;;;6.60;;
3922;SDS011;1976;51.694;6.256;2023-04-28T14:40:01;8.33;;;6.80;;
3922;SDS011;1976;51.694;6.256;2023-04-28T14:42:30;7.07;;;5.20;;
3922;SDS011;1976;51.694;6.256;2023-04-28T14:44:57;8.90;;;7.27;;
3922;SDS011;1976;51.694;6.256;2023-04-28T14:47:23;7.57;;;6.40;;
3922;SDS011;1976;51.694;6.256;2023-04-28T14:49:50;6.43;;;5.73;;
3922;SDS011;1976;51.694;6.256;2023-04-28T14:52:19;13.90;;;5.93;;
3922;SDS011;1976;51.694;6.256;2023-04-28T14:54:49;9.33;;;4.40;;
3922;SDS011;1976;51.694;6.256;2023-04-28T14:57:16;4.47;;;4.07;;
3922;SDS011;1976;51.694;6.256;2023-04-28T14:59:42;7.80;;;6.60;;
3922;SDS011;1976;51.694;6.256;2023-04-28T15:02:08;8.30;;;6.57;;
3922;SDS011;1976;51.694;6.256;2023-04-28T15:04:34;8.03;;;6.13;;
3922;SDS011;1976;51.694;6.256;2023-04-28T15:07:01;4.60;;;4.10;;
3922;SDS011;1976;51.694;6.256;2023-04-28T15:09:27;7.33;;;5.40;;
3922;SDS011;1976;51.694;6.256;2023-04-28T15:11:53;8.20;;;5.50;;
3922;SDS011;1976;51.694;6.256;2023-04-28T15:14:19;7.87;;;4.67;;
3922;SDS011;1976;51.694;6.256;2023-04-28T15:16:45;4.53;;;3.83;;
3922;SDS011;1976;51.694;6.256;2023-04-28T15:19:12;3.33;;;2.43;;
3922;SDS011;1976;51.694;6.256;2023-04-28T15:21:38;5.83;;;4.00;;
3922;SDS011;1976;51.694;6.256;2023-04-28T15:24:05;3.37;;;3.00;;
3922;SDS011;1976;51.694;6.256;2023-04-28T15:26:31;2.80;;;2.57;;
3922;SDS011;1976;51.694;6.256;2023-04-28T15:28:57;3.87;;;3.57;;
3922;SDS011;1976;51.694;6.256;2023-04-28T15:31:24;4.83;;;4.07;;
3922;SDS011;1976;51.694;6.256;2023-04-28T15:33:52;6.07;;;5.10;;
3922;SDS011;1976;51.694;6.256;2023-04-28T15:36:19;5.37;;;4.87;;
3922;SDS011;1976;51.694;6.256;2023-04-28T15:38:48;6.30;;;4.60;;